Bei Facebook empfehlenBei Twitter postenGoogle plusPinterest

Das Wetter im Erzgebirge am 22.11.2016

Wetter und Klima am 22.11.2016 Holzhau im Erzgebirge (630m ü.NN)
Letzte gemessene Temperatur und Uhrzeit der Messung23:45:00 Uhr5.30 °C
Temperatur (Maximum / Höchstwert) und Uhrzeit der Messung12:30:00 Uhr8.50 °C
Temperatur (Minimum / Tiefstwert) und Uhrzeit der Messung22:15:005.20 °C
Errechneter Absolutwert der Temperaturschwankungen zwischen Tmin und Tmax des Tages3.30 K
Errechnete Tagesmitteltemperatur6.86458 °C
Gesamt - Niederschlag des Tages (in flüssiger Form)0.00 Liter / m²
Luftdruck (Maximum / Höchstwert) und Zeitpunkt der Messung23:45:00 Uhr1013.60 hPa
Luftdruck (Minimum / Tiefstwert) und Zeitpunkt der Messung00:00:00 Uhr1006.80 hPa
Errechneter Absolutwert der Luftdruckschwankungen des Tages6.80 hPa
Höchste gemessene Windgeschwindigkeit und Uhrzeit der Messung23:45:00 Uhr0.00 km/h
Errechnete Windhäufigkeit in Relation zu den Messwerten des Tages0.00000 %
Niedrigste Windkühle (Windchill) und Zeitpunkt der Messung22:15:00 Uhr5.20 °C
Taupunkt (Maximum / Höchstwert) und Uhrzeit der Messung12:30:00 Uhr7.90 °C
Taupunkt (Minimum / Tiefstwert) und Uhrzeit der Messung22:15:004.60 °C
Anzahl der automatisch eingelesenen Messwerte 96

Detaillierte Wetter- und Klima- Messwerte für den 22.11.2016 in Holzhau im Erzgebirge (630m ü.NN)
ZeitTemperaturLuftdruckRel. LuftfeuchteWindWindrichtungWindchillTaupunktNiederschlag l/m²
23:45:005.30 °C1013.60 hPa96.00 %4.70 °C 
23:30:005.30 °C1013.50 hPa96.00 %4.70 °C 
23:15:005.30 °C1013.50 hPa96.00 %4.70 °C 
23:00:005.30 °C1013.20 hPa96.00 %4.70 °C 
22:45:005.30 °C1013.20 hPa96.00 %4.70 °C 
22:30:005.30 °C1013.30 hPa96.00 %4.70 °C 
22:15:005.20 °C1013.20 hPa96.00 %4.60 °C 
22:00:005.20 °C1012.90 hPa96.00 %4.60 °C 
21:45:005.40 °C1012.90 hPa96.00 %4.80 °C 
21:30:005.50 °C1012.90 hPa96.00 %4.90 °C 
21:15:005.60 °C1012.90 hPa96.00 %5.00 °C 
21:00:005.80 °C1013.00 hPa96.00 %5.20 °C 
20:45:005.80 °C1013.10 hPa96.00 %5.20 °C 
20:30:005.80 °C1013.10 hPa95.00 %5.10 °C 
20:15:005.80 °C1012.90 hPa95.00 %5.10 °C 
20:00:005.80 °C1012.80 hPa95.00 %5.10 °C 
19:45:005.80 °C1012.60 hPa95.00 %5.10 °C 
19:30:005.90 °C1012.70 hPa95.00 %5.20 °C 
19:15:005.90 °C1012.50 hPa95.00 %5.20 °C 
19:00:005.90 °C1012.40 hPa95.00 %5.20 °C 
18:45:005.90 °C1012.60 hPa95.00 %5.20 °C 
18:30:006.10 °C1012.50 hPa95.00 %5.40 °C 
18:15:006.10 °C1012.50 hPa95.00 %5.40 °C 
18:00:006.10 °C1012.50 hPa95.00 %5.40 °C 
17:45:006.10 °C1012.30 hPa95.00 %5.40 °C 
17:30:006.20 °C1012.20 hPa95.00 %5.50 °C 
17:15:006.30 °C1012.30 hPa95.00 %5.60 °C 
17:00:006.40 °C1012.30 hPa95.00 %5.70 °C 
16:45:006.50 °C1012.10 hPa95.00 %5.80 °C 
16:30:006.60 °C1011.80 hPa95.00 %5.90 °C 
16:15:006.70 °C1011.70 hPa94.00 %5.80 °C 
16:00:006.90 °C1011.80 hPa94.00 %6.00 °C 
15:45:006.90 °C1011.70 hPa94.00 %6.00 °C 
15:30:007.10 °C1011.40 hPa94.00 %6.20 °C 
15:15:007.20 °C1011.40 hPa94.00 %6.30 °C 
15:00:007.30 °C1011.40 hPa94.00 %6.40 °C 
14:45:007.40 °C1011.20 hPa94.00 %6.50 °C 
14:30:007.50 °C1011.20 hPa94.00 %6.60 °C 
14:15:007.70 °C1011.10 hPa95.00 %7.00 °C 
14:00:007.90 °C1011.00 hPa95.00 %7.10 °C 
13:45:007.90 °C1011.00 hPa95.00 %7.10 °C 
13:30:008.10 °C1010.90 hPa95.00 %7.30 °C 
13:15:008.20 °C1010.80 hPa95.00 %7.40 °C 
13:00:008.30 °C1011.10 hPa95.00 %7.50 °C 
12:45:008.40 °C1010.90 hPa95.00 %7.60 °C 
12:30:008.50 °C1010.90 hPa96.00 %7.90 °C 
12:15:008.50 °C1011.00 hPa96.00 %7.90 °C 
12:00:008.40 °C1010.70 hPa96.00 %7.80 °C 
11:45:008.20 °C1010.80 hPa96.00 %7.60 °C 
11:30:008.10 °C1010.80 hPa96.00 %7.50 °C 
11:15:008.10 °C1010.70 hPa97.00 %7.70 °C 
11:00:007.90 °C1010.90 hPa97.00 %7.50 °C 
10:45:007.60 °C1010.70 hPa96.00 %7.00 °C 
10:30:007.40 °C1010.60 hPa96.00 %6.80 °C 
10:15:007.30 °C1010.50 hPa96.00 %6.70 °C 
10:00:007.30 °C1010.40 hPa96.00 %6.70 °C 
09:45:007.30 °C1010.40 hPa97.00 %6.90 °C 
09:30:007.30 °C1010.10 hPa97.00 %6.90 °C 
09:15:007.20 °C1009.90 hPa97.00 %6.80 °C 
09:00:006.90 °C1009.80 hPa97.00 %6.50 °C 
08:45:006.80 °C1009.70 hPa97.00 %6.40 °C 
08:30:006.70 °C1009.60 hPa97.00 %6.30 °C 
08:15:006.60 °C1009.20 hPa96.00 %6.00 °C 
08:00:006.60 °C1008.90 hPa96.00 %6.00 °C 
07:45:006.60 °C1009.00 hPa96.00 %6.00 °C 
07:30:006.60 °C1008.50 hPa96.00 %6.00 °C 
07:15:006.60 °C1008.20 hPa96.00 %6.00 °C 
07:00:006.70 °C1008.40 hPa96.00 %6.10 °C 
06:45:006.60 °C1008.10 hPa96.00 %6.00 °C 
06:30:006.60 °C1008.10 hPa96.00 %6.00 °C 
06:15:006.70 °C1008.00 hPa96.00 %6.10 °C 
06:00:006.70 °C1008.00 hPa96.00 %6.10 °C 
05:45:006.80 °C1007.90 hPa96.00 %6.20 °C 
05:30:006.80 °C1007.80 hPa96.00 %6.20 °C 
05:15:006.90 °C1007.80 hPa96.00 %6.30 °C 
05:00:006.90 °C1007.80 hPa96.00 %6.30 °C 
04:45:007.00 °C1007.70 hPa96.00 %6.40 °C 
04:30:007.00 °C1007.70 hPa96.00 %6.40 °C 
04:15:007.10 °C1007.40 hPa96.00 %6.50 °C 
04:00:007.10 °C1007.30 hPa96.00 %6.50 °C 
03:45:007.20 °C1007.50 hPa96.00 %6.60 °C 
03:30:007.20 °C1007.50 hPa96.00 %6.60 °C 
03:15:007.20 °C1007.60 hPa96.00 %6.60 °C 
03:00:007.20 °C1007.70 hPa96.00 %6.60 °C 
02:45:007.30 °C1007.60 hPa96.00 %6.70 °C 
02:30:007.40 °C1007.30 hPa96.00 %6.80 °C 
02:15:007.50 °C1007.30 hPa96.00 %6.90 °C 
02:00:007.60 °C1007.10 hPa96.00 %7.00 °C 
01:45:007.60 °C1007.20 hPa96.00 %7.00 °C 
01:30:007.60 °C1007.00 hPa96.00 %7.00 °C 
01:15:007.60 °C1006.90 hPa96.00 %7.00 °C 
01:00:007.80 °C1007.10 hPa96.00 %7.20 °C 
00:45:007.80 °C1007.10 hPa96.00 %7.20 °C 
00:30:007.80 °C1007.00 hPa96.00 %7.20 °C 
00:15:007.90 °C1007.00 hPa96.00 %7.30 °C 
00:00:007.90 °C1006.80 hPa96.00 %7.30 °C 

Permanenter Link zu dieser Seite: Wetter im Erzgebirge am 22.11.2016
Performance-Info: Die Erstellung der Seite / Statistik(en) / Tabelle(n) erforderte 5 Datenbankserver-Abfrage(n) und dauerte 69 Millisekunden. (Dieser Messwert ist von der Gesamt-Auslastung des Servers abhängig.)
Erzgebirge - Wetter | Erzgebirge - Wetter (Mobilgeräte) | Komplette Klimadatenbank